Time;durP1;ratioP1;P1;durP2;ratioP2;P2;SDS_P1;SDS_P2;PMS_P1;PMS_P2;Temp;Humidity;BMP_temperature;BMP_pressure;BME280_temperature;BME280_humidity;BME280_pressure;Samples;Min_cycle;Max_cycle;Signal;HPM_P1;HPM_P2
2023/09/13 20:29:01;;;;;;;1.75;1.02;;;20.40;99.90;;;;;;4897270;28;20542;-70
2023/09/13 20:31:30;;;;;;;4.35;1.95;;;20.30;99.90;;;;;;4894783;28;1401331;-69
2023/09/13 20:33:55;;;;;;;3.20;1.25;;;20.40;99.90;;;;;;4920310;29;20091;-70
2023/09/13 20:36:22;;;;;;;2.00;1.23;;;20.50;99.90;;;;;;4913667;29;20492;-70
2023/09/13 20:38:47;;;;;;;3.47;1.30;;;20.50;99.90;;;;;;4928611;29;20044;-70
2023/09/13 20:41:14;;;;;;;2.28;1.42;;;20.50;99.90;;;;;;4913470;29;20035;-69
2023/09/13 20:43:40;;;;;;;3.38;1.25;;;20.40;99.90;;;;;;4912897;29;20436;-69
2023/09/13 20:46:06;;;;;;;2.20;1.27;;;20.30;99.90;;;;;;4915670;29;20024;-69
2023/09/13 20:48:32;;;;;;;2.13;1.30;;;20.30;99.90;;;;;;4914371;29;20073;-70
2023/09/13 20:51:02;;;;;;;3.97;1.67;;;20.20;99.90;;;;;;4915798;29;20036;-69
2023/09/13 20:53:28;;;;;;;3.78;1.60;;;20.10;99.90;;;;;;4915716;29;20032;-69
2023/09/13 20:55:54;;;;;;;2.90;1.60;;;20.00;99.90;;;;;;4914945;29;20103;-69
2023/09/13 20:58:20;;;;;;;2.08;1.10;;;20.10;99.90;;;;;;4915756;29;20472;-70
2023/09/13 21:00:45;;;;;;;3.53;1.58;;;20.10;99.90;;;;;;4912960;29;20020;-70
2023/09/13 21:03:11;;;;;;;2.88;1.40;;;20.20;99.90;;;;;;4915610;29;20060;-69
2023/09/13 21:05:37;;;;;;;1.70;1.08;;;20.10;99.90;;;;;;4914743;29;20516;-70
2023/09/13 21:08:03;;;;;;;1.88;1.23;;;20.10;99.90;;;;;;4898625;29;20031;-70
2023/09/13 21:10:29;;;;;;;2.22;1.10;;;20.10;99.90;;;;;;4915201;29;20036;-70
2023/09/13 21:12:55;;;;;;;3.53;1.30;;;20.10;99.90;;;;;;4914046;29;20032;-69
2023/09/13 21:15:21;;;;;;;1.75;1.15;;;20.10;99.90;;;;;;4915182;29;20361;-71
2023/09/13 21:17:46;;;;;;;3.35;0.98;;;20.30;99.90;;;;;;4898116;29;20035;-70
2023/09/13 21:20:12;;;;;;;2.25;1.40;;;20.40;99.90;;;;;;4915262;29;20515;-70
2023/09/13 21:22:38;;;;;;;2.42;1.38;;;20.50;99.90;;;;;;4914005;29;20084;-70
2023/09/13 21:25:07;;;;;;;4.18;1.02;;;20.50;99.90;;;;;;4914987;29;20032;-70
2023/09/13 21:27:33;;;;;;;1.73;1.15;;;20.50;99.90;;;;;;4914484;29;20040;-70
2023/09/13 21:29:59;;;;;;;3.30;1.20;;;20.50;99.90;;;;;;4914888;29;20576;-70
2023/09/13 21:32:26;;;;;;;1.52;1.08;;;20.50;99.90;;;;;;4915107;29;20036;-70
2023/09/13 21:34:51;;;;;;;2.67;1.30;;;20.60;99.90;;;;;;4912456;29;20036;-70
2023/09/13 21:37:17;;;;;;;1.90;1.08;;;20.50;99.90;;;;;;4913574;29;20079;-70
2023/09/13 21:39:43;;;;;;;2.33;1.30;;;20.40;99.90;;;;;;4913731;29;20036;-70
2023/09/13 21:42:08;;;;;;;2.70;1.45;;;20.40;99.90;;;;;;4913129;29;20519;-70
2023/09/13 21:44:34;;;;;;;3.28;1.23;;;20.30;99.90;;;;;;4914734;29;20106;-70
2023/09/13 21:47:00;;;;;;;2.88;1.30;;;20.40;99.90;;;;;;4915215;29;20042;-70
2023/09/13 21:49:25;;;;;;;1.85;1.02;;;20.40;99.90;;;;;;4915708;29;20494;-70
2023/09/13 21:51:51;;;;;;;3.38;1.15;;;20.40;99.90;;;;;;4915592;29;20112;-70
2023/09/13 21:54:17;;;;;;;2.85;1.48;;;20.30;99.90;;;;;;4915260;29;20028;-70
2023/09/13 21:56:43;;;;;;;2.92;1.52;;;20.20;99.90;;;;;;4914358;29;20068;-70
2023/09/13 21:59:08;;;;;;;2.97;1.13;;;20.10;99.90;;;;;;4915713;29;20034;-70
2023/09/13 22:01:34;;;;;;;2.83;1.25;;;20.30;99.90;;;;;;4915411;29;20035;-70
2023/09/13 22:04:00;;;;;;;2.85;0.90;;;20.30;99.90;;;;;;4915237;29;20111;-70
2023/09/13 22:06:26;;;;;;;2.72;1.02;;;20.30;99.90;;;;;;4915498;29;20059;-71
2023/09/13 22:08:52;;;;;;;8.23;1.10;;;20.00;99.90;;;;;;4915474;29;20039;-70
2023/09/13 22:11:18;;;;;;;2.50;1.02;;;20.00;99.90;;;;;;4916786;29;20051;-70
2023/09/13 22:13:44;;;;;;;2.05;1.05;;;19.90;99.90;;;;;;4917805;29;20047;-70
2023/09/13 22:16:09;;;;;;;2.83;0.47;;;19.50;99.90;;;;;;4919295;29;20586;-70
2023/09/13 22:18:36;;;;;;;2.75;1.00;;;19.70;99.90;;;;;;4918049;29;20156;-70
2023/09/13 22:21:02;;;;;;;1.42;0.90;;;19.70;99.90;;;;;;4918153;29;20118;-70
2023/09/13 22:23:30;;;;;;;3.60;1.45;;;19.90;99.90;;;;;;4917776;29;20942;-70
2023/09/13 22:25:57;;;;;;;1.63;0.60;;;19.80;99.90;;;;;;4918188;29;20647;-70
2023/09/13 22:28:23;;;;;;;1.60;0.95;;;19.70;99.90;;;;;;4917883;29;20496;-70
2023/09/13 22:30:49;;;;;;;1.52;0.60;;;19.80;99.90;;;;;;4917892;29;20039;-70
2023/09/13 22:33:15;;;;;;;2.13;0.55;;;19.90;99.90;;;;;;4918672;29;20047;-71
2023/09/13 22:35:42;;;;;;;7.40;0.70;;;19.80;99.90;;;;;;4918438;29;20032;-70
2023/09/13 22:38:09;;;;;;;6.15;0.88;;;19.70;99.90;;;;;;4917608;29;20511;-70
2023/09/13 22:40:35;;;;;;;0.38;0.30;;;19.70;99.90;;;;;;4919045;29;20024;-70
2023/09/13 22:43:01;;;;;;;1.33;0.70;;;19.60;99.90;;;;;;4917403;29;20028;-70
2023/09/13 22:45:28;;;;;;;1.30;0.65;;;19.50;99.90;;;;;;4933021;29;20032;-70
2023/09/13 22:47:54;;;;;;;0.90;0.40;;;19.40;99.90;;;;;;4918663;29;20094;-70
2023/09/13 22:50:20;;;;;;;1.58;0.68;;;19.40;99.90;;;;;;4918933;29;20028;-70
2023/09/13 22:52:45;;;;;;;0.93;0.47;;;19.60;99.90;;;;;;4918503;29;20040;-70
2023/09/13 22:55:11;;;;;;;0.70;0.45;;;19.70;99.90;;;;;;4916187;29;20033;-70
2023/09/13 22:57:43;;;;;;;0.77;0.60;;;19.20;99.90;;;;;;4917136;29;20060;-72
2023/09/13 23:00:14;;;;;;;0.95;0.55;;;19.10;99.90;;;;;;4902145;29;20473;-71
2023/09/13 23:02:42;;;;;;;1.60;0.60;;;19.00;99.90;;;;;;4933302;29;20444;-70
2023/09/13 23:05:09;;;;;;;1.60;0.55;;;19.10;99.90;;;;;;4918317;29;20507;-71
2023/09/13 23:07:36;;;;;;;1.33;0.73;;;19.10;99.90;;;;;;4917259;29;20464;-71
2023/09/13 23:10:02;;;;;;;1.65;0.80;;;19.10;99.90;;;;;;4917578;29;20507;-70
2023/09/13 23:12:28;;;;;;;2.05;0.77;;;19.20;99.90;;;;;;4918614;29;20040;-71
2023/09/13 23:14:55;;;;;;;1.75;0.82;;;19.30;99.90;;;;;;4918309;29;20036;-70
2023/09/13 23:17:21;;;;;;;1.05;0.50;;;19.30;99.90;;;;;;4917612;29;20043;-71
2023/09/13 23:19:46;;;;;;;0.75;0.47;;;19.20;99.90;;;;;;4917342;29;20032;-70
2023/09/13 23:22:12;;;;;;;2.08;0.57;;;19.10;99.90;;;;;;4917869;29;20043;-70
2023/09/13 23:24:38;;;;;;;0.93;0.40;;;19.10;99.90;;;;;;4917765;29;20488;-70
2023/09/13 23:27:04;;;;;;;2.08;0.63;;;19.00;99.90;;;;;;4916918;29;20119;-70
2023/09/13 23:29:29;;;;;;;0.88;0.50;;;18.90;99.90;;;;;;4901438;29;20168;-70
2023/09/13 23:31:57;;;;;;;2.92;0.70;;;18.80;99.90;;;;;;4917131;29;20055;-69
2023/09/13 23:34:23;;;;;;;1.50;0.73;;;18.70;99.90;;;;;;4916550;29;20032;-70
2023/09/13 23:36:49;;;;;;;3.00;0.60;;;18.60;99.90;;;;;;4918149;29;20067;-70
2023/09/13 23:39:15;;;;;;;1.60;0.47;;;18.50;99.90;;;;;;4918158;29;20027;-70
2023/09/13 23:41:41;;;;;;;2.30;0.73;;;18.40;99.90;;;;;;4918108;29;20032;-70
2023/09/13 23:44:06;;;;;;;1.42;0.60;;;18.40;99.90;;;;;;4917572;29;20547;-70
2023/09/13 23:46:32;;;;;;;0.63;0.45;;;18.20;99.90;;;;;;4918000;29;20029;-70
2023/09/13 23:48:58;;;;;;;0.93;0.45;;;18.20;99.90;;;;;;4918138;29;20118;-70
2023/09/13 23:51:24;;;;;;;2.15;0.68;;;18.20;99.90;;;;;;4918001;29;20035;-70
2023/09/13 23:53:50;;;;;;;1.92;0.80;;;18.10;99.90;;;;;;4916231;29;20030;-71
2023/09/13 23:56:19;;;;;;;0.70;0.32;;;18.00;99.90;;;;;;4930317;29;20350;-70
2023/09/13 23:58:48;;;;;;;3.75;0.70;;;17.80;99.90;;;;;;4914506;29;20079;-70
